Time;durP1;ratioP1;P1;durP2;ratioP2;P2;SDS_P1;SDS_P2;PMS_P1;PMS_P2;Temp;Humidity;BMP_temperature;BMP_pressure;BME280_temperature;BME280_humidity;BME280_pressure;Samples;Min_cycle;Max_cycle;Signal;HPM_P1;HPM_P2
2023/04/12 00:01:58;;;;;;;13.80;10.17;;;;;;;10.31;80.07;93967.34;5073372;28;20506;-75
2023/04/12 00:04:27;;;;;;;13.27;11.27;;;;;;;10.30;80.61;93973.56;5073602;28;20460;-75
2023/04/12 00:06:54;;;;;;;15.20;10.20;;;;;;;10.23;80.81;93965.47;5073128;28;20488;-76
2023/04/12 00:09:22;;;;;;;15.40;11.03;;;;;;;10.24;80.03;93969.75;5073025;28;20441;-75
2023/04/12 00:11:49;;;;;;;14.90;11.30;;;;;;;10.24;82.01;93960.09;5053572;28;20452;-75
2023/04/12 00:14:16;;;;;;;17.50;10.70;;;;;;;10.26;82.28;93962.56;5072871;28;20933;-74
2023/04/12 00:16:43;;;;;;;16.97;13.17;;;;;;;10.30;80.90;93965.69;5037340;28;20893;-75
2023/04/12 00:19:10;;;;;;;15.57;12.23;;;;;;;10.32;79.86;93961.94;5053847;28;20452;-75
2023/04/12 00:21:37;;;;;;;21.87;11.93;;;;;;;10.35;81.10;93963.44;5073185;28;20452;-75
2023/04/12 00:24:04;;;;;;;18.20;12.97;;;;;;;10.33;80.76;93950.47;5072887;28;20805;-75
2023/04/12 00:26:32;;;;;;;14.27;11.53;;;;;;;10.38;80.21;93958.72;5072357;28;20488;-76
2023/04/12 00:28:59;;;;;;;15.80;11.43;;;;;;;10.47;81.57;93947.31;5072392;28;20455;-75
2023/04/12 00:31:26;;;;;;;16.37;10.63;;;;;;;10.47;79.81;93952.56;5072355;28;20927;-75
2023/04/12 00:33:54;;;;;;;13.90;11.03;;;;;;;10.37;80.20;93943.94;5072529;28;20514;-76
2023/04/12 00:36:21;;;;;;;13.63;11.63;;;;;;;10.33;80.15;93941.78;5072718;28;20797;-75
2023/04/12 00:38:48;;;;;;;12.80;11.00;;;;;;;10.23;80.56;93952.38;5072603;28;20512;-74
2023/04/12 00:41:15;;;;;;;15.07;11.07;;;;;;;10.18;80.41;93937.06;5037390;28;20436;-74
2023/04/12 00:43:43;;;;;;;14.73;11.13;;;;;;;10.19;81.68;93940.50;5072713;28;20452;-76
2023/04/12 00:46:11;;;;;;;15.70;11.37;;;;;;;10.21;81.33;93941.22;5037124;28;20503;-75
2023/04/12 00:48:39;;;;;;;13.57;11.13;;;;;;;10.22;80.47;93942.84;5072737;28;20479;-74
2023/04/12 00:51:08;;;;;;;14.77;12.20;;;;;;;10.17;80.74;93948.53;5072317;28;20447;-75
2023/04/12 00:53:35;;;;;;;15.20;11.70;;;;;;;10.16;81.97;93939.03;5072441;28;20947;-75
2023/04/12 00:56:03;;;;;;;14.30;10.83;;;;;;;10.17;81.73;93931.97;5072874;28;20444;-75
2023/04/12 00:58:30;;;;;;;17.07;12.80;;;;;;;10.22;81.44;93932.38;5072581;28;20511;-75
2023/04/12 01:00:59;;;;;;;15.87;11.87;;;;;;;10.19;81.05;93928.22;5072537;28;20519;-75
2023/04/12 01:03:29;;;;;;;15.97;11.90;;;;;;;10.21;81.30;93931.56;5072363;28;20456;-75
2023/04/12 01:06:09;;;;;;;18.33;12.80;;;;;;;10.20;81.30;93924.66;5072513;28;20579;-75
2023/04/12 01:08:44;;;;;;;15.10;11.83;;;;;;;10.21;81.26;93928.09;5072354;28;20531;-74
2023/04/12 01:11:18;;;;;;;17.60;12.90;;;;;;;10.22;80.27;93919.25;5072564;28;20451;-75
2023/04/12 01:14:01;;;;;;;15.33;11.60;;;;;;;10.21;81.02;93925.47;5072487;28;20439;-75
2023/04/12 01:16:36;;;;;;;15.13;12.10;;;;;;;10.15;80.39;93915.56;5039689;28;20480;-76
2023/04/12 01:19:16;;;;;;;14.30;12.50;;;;;;;10.16;81.01;93923.28;5071640;28;20443;-75
2023/04/12 01:22:02;;;;;;;15.70;10.97;;;;;;;10.13;81.46;93917.53;5071996;28;20443;-75
2023/04/12 01:24:37;;;;;;;16.60;12.20;;;;;;;10.14;81.68;93917.38;5076121;28;20539;-75
2023/04/12 01:27:12;;;;;;;14.73;11.10;;;;;;;10.17;81.39;93921.50;5075571;28;20573;-76
2023/04/12 01:29:41;;;;;;;16.87;12.50;;;;;;;10.14;81.05;93916.56;5057287;28;20970;-76
2023/04/12 01:32:12;;;;;;;19.43;12.33;;;;;;;10.11;81.31;93927.31;5075510;28;20500;-76
2023/04/12 01:34:40;;;;;;;17.57;12.80;;;;;;;10.05;82.72;93913.03;5040849;28;20531;-75
2023/04/12 01:37:07;;;;;;;14.60;10.47;;;;;;;10.05;81.90;93920.88;5075669;28;20487;-76
2023/04/12 01:39:35;;;;;;;15.77;12.77;;;;;;;10.03;82.14;93922.00;5075626;28;20805;-76
2023/04/12 01:42:01;;;;;;;21.90;13.47;;;;;;;10.09;80.97;93927.47;5056844;28;20444;-75
2023/04/12 01:44:28;;;;;;;11.40;10.00;;;;;;;10.08;80.76;93915.34;5056551;28;20450;-74
2023/04/12 01:46:57;;;;;;;17.07;12.47;;;;;;;10.09;80.91;93916.97;5075400;28;20488;-75
2023/04/12 01:49:29;;;;;;;18.07;13.10;;;;;;;10.13;81.30;93917.53;5075624;28;20440;-74
2023/04/12 01:52:04;;;;;;;16.37;12.30;;;;;;;10.14;80.68;93901.66;5075382;28;20452;-75
2023/04/12 01:54:34;;;;;;;20.53;11.77;;;;;;;10.16;81.52;93906.75;5075641;28;20439;-75
2023/04/12 01:57:03;;;;;;;17.13;12.13;;;;;;;10.16;80.51;93914.59;5075998;28;20460;-74
2023/04/12 01:59:34;;;;;;;16.60;12.37;;;;;;;10.11;81.42;93911.59;5075367;28;20506;-75
2023/04/12 02:02:03;;;;;;;20.33;15.10;;;;;;;10.15;80.88;93918.19;5075403;28;20907;-75
2023/04/12 02:04:30;;;;;;;19.80;12.90;;;;;;;10.11;80.14;93908.97;5075494;28;20454;-76
2023/04/12 02:06:57;;;;;;;19.87;13.00;;;;;;;10.05;81.19;93899.91;5075566;28;20491;-74
2023/04/12 02:09:24;;;;;;;20.40;13.80;;;;;;;10.10;81.50;93902.06;5075463;28;20440;-74
2023/04/12 02:11:51;;;;;;;18.40;13.43;;;;;;;10.05;80.67;93894.66;5075196;28;20444;-74
2023/04/12 02:14:18;;;;;;;17.07;12.47;;;;;;;10.05;81.01;93899.09;5039896;28;20502;-74
2023/04/12 02:16:45;;;;;;;20.30;12.60;;;;;;;10.03;81.04;93901.88;5075611;28;20521;-75
2023/04/12 02:19:13;;;;;;;21.07;13.27;;;;;;;10.00;81.89;93901.34;5075457;28;20442;-74
2023/04/12 02:21:41;;;;;;;14.93;12.30;;;;;;;9.96;80.85;93887.72;5039920;28;20455;-74
2023/04/12 02:24:10;;;;;;;17.80;13.30;;;;;;;9.99;81.61;93889.22;5074996;28;20543;-74
2023/04/12 02:26:37;;;;;;;20.13;13.80;;;;;;;9.96;81.39;93894.75;5074656;28;20484;-74
2023/04/12 02:29:06;;;;;;;17.90;12.83;;;;;;;9.93;81.00;93894.09;5075002;28;20441;-74
2023/04/12 02:31:33;;;;;;;16.00;12.83;;;;;;;9.98;82.82;93892.81;5074699;28;20443;-74
2023/04/12 02:34:00;;;;;;;16.37;12.50;;;;;;;10.00;81.20;93885.63;5074547;28;20506;-75
2023/04/12 02:36:29;;;;;;;17.40;12.47;;;;;;;9.97;80.90;93896.41;5074789;28;20863;-75
2023/04/12 02:38:56;;;;;;;19.13;14.20;;;;;;;9.94;81.17;93887.88;5074854;28;20466;-76
2023/04/12 02:41:24;;;;;;;16.67;13.07;;;;;;;9.89;81.68;93886.69;5075001;28;20834;-75
2023/04/12 02:43:51;;;;;;;19.40;13.50;;;;;;;9.91;81.94;93892.59;5074962;28;20444;-74
2023/04/12 02:46:22;;;;;;;16.77;12.40;;;;;;;9.88;81.49;93892.91;5074428;28;20545;-75
2023/04/12 02:48:49;;;;;;;15.53;12.03;;;;;;;9.88;82.66;93893.72;5074798;28;20441;-76
2023/04/12 02:51:16;;;;;;;17.97;12.60;;;;;;;9.89;82.33;93878.81;5074430;28;20449;-74
2023/04/12 02:53:44;;;;;;;18.57;12.23;;;;;;;9.85;82.68;93888.78;5074483;28;20494;-75
2023/04/12 02:56:11;;;;;;;16.80;13.00;;;;;;;9.80;82.44;93879.72;5074164;28;20862;-75
2023/04/12 02:58:39;;;;;;;23.33;14.43;;;;;;;9.84;81.99;93887.16;5074622;28;20533;-75
2023/04/12 03:01:06;;;;;;;20.53;15.33;;;;;;;9.84;81.52;93886.31;5074449;28;20439;-75
2023/04/12 03:03:34;;;;;;;17.80;12.53;;;;;;;9.87;82.33;93894.69;5039341;28;20806;-75
2023/04/12 03:06:01;;;;;;;17.63;12.27;;;;;;;9.84;81.27;93889.75;5074498;28;20451;-76
2023/04/12 03:08:28;;;;;;;21.00;14.00;;;;;;;9.87;80.77;93880.78;5074366;28;20506;-75
2023/04/12 03:10:57;;;;;;;23.73;14.70;;;;;;;9.83;81.98;93888.13;5074367;28;20442;-75
2023/04/12 03:13:24;;;;;;;16.63;12.67;;;;;;;9.91;82.06;93889.97;5074026;28;20444;-75
2023/04/12 03:15:56;;;;;;;24.90;14.17;;;;;;;9.90;81.96;93886.53;5074233;28;20888;-75
2023/04/12 03:18:23;;;;;;;19.27;13.80;;;;;;;9.93;81.97;93886.22;5074042;28;20623;-73
2023/04/12 03:20:52;;;;;;;21.43;14.13;;;;;;;9.90;81.94;93886.53;5073857;28;20782;-73
2023/04/12 03:23:19;;;;;;;19.57;14.60;;;;;;;9.88;81.26;93891.09;5055321;28;20528;-73
2023/04/12 03:25:45;;;;;;;17.53;13.40;;;;;;;9.86;81.68;93900.91;5073751;28;20499;-73
2023/04/12 03:28:14;;;;;;;17.77;13.10;;;;;;;9.87;82.79;93899.94;5073244;28;20488;-76
2023/04/12 03:30:40;;;;;;;20.80;15.13;;;;;;;9.89;83.25;93894.56;5073495;28;20449;-74
2023/04/12 03:33:07;;;;;;;20.13;14.27;;;;;;;9.93;82.62;93901.94;5073685;28;20445;-76
2023/04/12 03:35:34;;;;;;;20.23;15.23;;;;;;;9.95;83.26;93899.19;5073921;28;20982;-76
2023/04/12 03:38:01;;;;;;;27.00;16.30;;;;;;;9.93;83.15;93896.72;5073608;28;20857;-75
2023/04/12 03:40:28;;;;;;;24.10;16.80;;;;;;;9.90;84.51;93904.88;5073416;28;20517;-75
2023/04/12 03:42:54;;;;;;;21.10;16.83;;;;;;;9.87;86.12;93899.94;5073614;28;20448;-73
2023/04/12 03:45:23;;;;;;;25.13;17.90;;;;;;;9.87;86.41;93907.81;5037252;28;20436;-74
2023/04/12 03:47:49;;;;;;;48.20;18.00;;;;;;;9.92;86.07;93910.78;5073410;28;20511;-74
2023/04/12 03:50:16;;;;;;;23.00;16.03;;;;;;;9.99;85.88;93912.81;5073188;28;20448;-74
2023/04/12 03:52:43;;;;;;;22.40;15.97;;;;;;;9.93;85.56;93907.19;5073576;28;20449;-76
2023/04/12 03:55:11;;;;;;;22.13;16.70;;;;;;;10.02;84.89;93912.50;5073504;28;20451;-74
2023/04/12 03:57:37;;;;;;;23.43;16.20;;;;;;;10.06;84.85;93912.03;5073630;28;20488;-74
2023/04/12 04:00:07;;;;;;;26.13;17.90;;;;;;;10.15;83.96;93911.16;5037722;28;20434;-74
2023/04/12 04:02:35;;;;;;;25.03;17.53;;;;;;;10.16;82.87;93906.75;5073163;28;20457;-74
2023/04/12 04:05:03;;;;;;;20.03;15.20;;;;;;;10.14;83.25;93909.50;5071083;28;20440;-74
2023/04/12 04:07:30;;;;;;;29.10;17.63;;;;;;;10.09;83.77;93908.28;5073015;28;20492;-74
2023/04/12 04:09:57;;;;;;;24.70;16.57;;;;;;;10.06;82.94;93916.47;5073494;28;20476;-74
2023/04/12 04:12:24;;;;;;;21.40;16.07;;;;;;;10.03;83.45;93922.00;5071830;28;20445;-75
2023/04/12 04:14:51;;;;;;;23.43;16.07;;;;;;;10.03;83.34;93925.44;5072932;28;20445;-75
2023/04/12 04:17:18;;;;;;;25.70;17.03;;;;;;;10.08;83.66;93922.38;5073026;28;20934;-76
2023/04/12 04:19:47;;;;;;;25.05;18.48;;;;;;;10.10;82.76;93923.88;5072577;28;20815;-76
2023/04/12 04:22:14;;;;;;;25.50;17.60;;;;;;;10.16;82.09;93914.59;5072660;28;20260;-74
2023/04/12 04:24:41;;;;;;;24.70;17.87;;;;;;;10.14;82.30;93930.47;5073057;28;20459;-76
2023/04/12 04:27:08;;;;;;;25.20;18.40;;;;;;;10.19;82.05;93933.47;5073222;28;20487;-77
2023/04/12 04:29:35;;;;;;;24.30;17.20;;;;;;;10.17;81.39;93931.97;5073061;28;20845;-74
2023/04/12 04:32:02;;;;;;;28.90;18.10;;;;;;;10.15;82.28;93934.75;5072574;28;20782;-73
2023/04/12 04:34:29;;;;;;;22.90;16.80;;;;;;;10.13;83.13;93946.38;5037319;28;20456;-75
2023/04/12 04:36:57;;;;;;;24.20;18.20;;;;;;;10.09;82.58;93945.00;5072632;28;20454;-75
2023/04/12 04:39:28;;;;;;;26.37;17.63;;;;;;;10.12;82.75;93955.16;5072859;28;20988;-75
2023/04/12 04:41:56;;;;;;;25.90;17.33;;;;;;;10.12;82.93;93949.94;5072685;28;20443;-76
2023/04/12 04:44:24;;;;;;;28.97;18.47;;;;;;;10.17;82.83;93950.31;5037314;28;20440;-74
2023/04/12 04:46:51;;;;;;;23.53;17.33;;;;;;;10.18;81.52;93951.97;5072373;28;20959;-74
2023/04/12 04:49:18;;;;;;;26.67;17.50;;;;;;;10.15;82.09;93963.59;5072593;28;20484;-75
2023/04/12 04:51:45;;;;;;;26.00;16.00;;;;;;;10.16;82.26;93967.03;5072400;28;20445;-75
2023/04/12 04:54:15;;;;;;;21.47;15.97;;;;;;;10.17;81.92;93971.31;5072836;28;21423;-75
2023/04/12 04:56:42;;;;;;;25.40;16.50;;;;;;;10.17;84.53;93968.69;5074652;28;20449;-77
2023/04/12 04:59:09;;;;;;;20.00;14.40;;;;;;;10.26;82.83;93980.91;5077105;28;20440;-77
2023/04/12 05:01:36;;;;;;;22.50;15.47;;;;;;;10.29;83.50;93975.34;5077174;28;20474;-78
2023/04/12 05:04:03;;;;;;;22.90;14.67;;;;;;;10.30;81.31;93986.66;5077311;28;20459;-75
2023/04/12 05:06:30;;;;;;;21.97;14.47;;;;;;;10.31;81.22;93988.31;5075996;28;20467;-74
2023/04/12 05:08:57;;;;;;;20.83;15.70;;;;;;;10.34;80.91;93983.59;5072149;28;20527;-73
2023/04/12 05:11:26;;;;;;;20.17;14.00;;;;;;;10.27;82.79;93989.59;5071682;28;20445;-73
2023/04/12 05:13:53;;;;;;;17.20;12.40;;;;;;;10.11;80.46;93975.31;5075854;28;20531;-74
2023/04/12 05:16:19;;;;;;;32.43;13.10;;;;;;;10.14;81.26;93982.91;5075662;28;20470;-74
2023/04/12 05:18:46;;;;;;;19.57;13.47;;;;;;;10.18;80.13;93996.53;5075845;28;20452;-74
2023/04/12 05:21:13;;;;;;;16.53;11.83;;;;;;;10.18;79.66;94000.00;5075392;28;20490;-74
2023/04/12 05:23:43;;;;;;;15.40;12.40;;;;;;;10.20;82.95;93989.34;5075384;28;20497;-74
2023/04/12 05:26:09;;;;;;;19.47;11.20;;;;;;;10.16;79.39;93995.88;5075296;28;20452;-75
2023/04/12 05:28:37;;;;;;;17.43;11.17;;;;;;;10.16;78.21;94009.81;5062208;28;20487;-74
2023/04/12 05:31:05;;;;;;;18.47;10.70;;;;;;;10.19;77.90;93996.38;5075679;28;20452;-74
2023/04/12 05:33:33;;;;;;;16.87;11.70;;;;;;;10.25;79.18;93995.00;5056850;28;20453;-76
2023/04/12 05:36:00;;;;;;;13.27;9.97;;;;;;;10.29;78.28;93996.34;5057146;28;20441;-77
2023/04/12 05:38:27;;;;;;;17.63;10.10;;;;;;;10.30;77.63;93992.75;5074353;28;20704;-78
2023/04/12 05:40:54;;;;;;;13.20;10.13;;;;;;;10.31;75.15;93985.69;5076140;28;20443;-76
2023/04/12 05:43:20;;;;;;;8.97;8.07;;;;;;;10.27;75.61;93992.22;5075817;28;20539;-77
2023/04/12 05:45:50;;;;;;;12.40;9.13;;;;;;;10.28;76.79;93988.63;5075268;28;20513;-76
2023/04/12 05:48:17;;;;;;;12.10;9.50;;;;;;;10.35;75.67;93998.34;5074095;28;20487;-76
2023/04/12 05:50:50;;;;;;;13.40;10.00;;;;;;;10.42;75.86;93995.97;5062708;28;20483;-77
2023/04/12 05:53:17;;;;;;;16.67;11.20;;;;;;;10.40;75.63;93993.47;5076592;28;20455;-77
2023/04/12 05:55:44;;;;;;;15.97;8.80;;;;;;;10.40;74.49;93992.66;5040966;28;20871;-77
2023/04/12 05:58:11;;;;;;;9.63;8.13;;;;;;;10.31;73.07;93991.75;5076001;28;20841;-76
2023/04/12 06:00:40;;;;;;;10.87;8.20;;;;;;;10.32;74.37;94001.28;5076083;28;20461;-76
2023/04/12 06:03:09;;;;;;;13.63;8.80;;;;;;;10.36;73.95;94007.88;5090946;28;20490;-77
2023/04/12 06:05:36;;;;;;;10.00;8.00;;;;;;;10.27;73.15;94014.00;5075250;28;20451;-78
2023/04/12 06:08:04;;;;;;;17.20;8.27;;;;;;;10.31;73.83;94002.25;5073554;28;20487;-77
2023/04/12 06:10:31;;;;;;;10.83;7.00;;;;;;;10.35;73.77;94011.47;5074813;28;20802;-76
2023/04/12 06:12:58;;;;;;;15.57;6.10;;;;;;;10.35;71.87;94008.00;5074375;28;20502;-76
2023/04/12 06:15:25;;;;;;;9.93;6.43;;;;;;;10.34;71.10;94015.06;5074452;28;20959;-76
2023/04/12 06:17:51;;;;;;;7.53;5.90;;;;;;;10.39;72.39;94027.72;5074330;28;20429;-77
2023/04/12 06:20:20;;;;;;;9.53;6.93;;;;;;;10.35;71.63;94029.81;5074330;28;20459;-74
2023/04/12 06:22:46;;;;;;;14.00;6.77;;;;;;;10.29;71.77;94042.72;5074402;28;20931;-77
2023/04/12 06:25:15;;;;;;;10.80;8.00;;;;;;;10.22;72.30;94045.09;5055452;28;20443;-76
2023/04/12 06:27:42;;;;;;;10.40;6.97;;;;;;;10.13;73.87;94032.88;5074180;28;20491;-76
2023/04/12 06:30:09;;;;;;;8.07;6.57;;;;;;;10.13;74.40;94040.72;5074154;28;20509;-76
2023/04/12 06:32:37;;;;;;;6.90;6.20;;;;;;;10.08;76.93;94051.63;5055253;28;20449;-75
2023/04/12 06:35:04;;;;;;;8.57;6.70;;;;;;;9.96;78.09;94046.75;5073967;28;20935;-76
2023/04/12 06:37:32;;;;;;;13.40;10.40;;;;;;;9.97;81.04;94049.22;5073567;28;20447;-76
2023/04/12 06:39:59;;;;;;;14.53;10.13;;;;;;;9.92;80.52;94044.44;5074022;28;20444;-77
2023/04/12 06:42:26;;;;;;;15.50;12.13;;;;;;;9.84;82.07;94039.13;5074063;28;20456;-76
2023/04/12 06:44:52;;;;;;;13.90;10.37;;;;;;;9.77;82.22;94047.69;5073733;28;20992;-75
2023/04/12 06:47:19;;;;;;;10.30;8.70;;;;;;;9.76;81.21;94031.13;5073443;28;20509;-76
2023/04/12 06:49:46;;;;;;;11.43;8.50;;;;;;;9.69;79.77;94039.72;5073718;28;20462;-77
2023/04/12 06:52:13;;;;;;;8.83;8.03;;;;;;;9.73;80.16;94036.66;5073969;28;20452;-76
2023/04/12 06:54:41;;;;;;;16.20;8.40;;;;;;;9.85;81.44;94034.69;5038280;28;20440;-76
2023/04/12 06:57:09;;;;;;;11.53;7.67;;;;;;;10.00;81.48;94029.75;5073595;28;20447;-77
2023/04/12 06:59:36;;;;;;;10.07;8.17;;;;;;;9.97;78.81;94014.34;5073590;28;21019;-78
2023/04/12 07:02:03;;;;;;;10.17;6.90;;;;;;;10.00;77.01;94030.59;5054804;28;20452;-76
2023/04/12 07:04:30;;;;;;;15.50;7.13;;;;;;;10.00;77.12;94016.66;5073677;28;20490;-76
2023/04/12 07:06:57;;;;;;;7.70;5.80;;;;;;;10.01;77.22;94021.75;5073477;28;20449;-77
2023/04/12 07:09:23;;;;;;;8.03;7.20;;;;;;;10.13;78.64;94011.91;5073495;28;20490;-77
2023/04/12 07:11:52;;;;;;;8.00;6.27;;;;;;;10.29;75.98;94012.06;5073244;28;20441;-76
2023/04/12 07:14:18;;;;;;;9.67;6.00;;;;;;;10.48;77.79;94011.91;5073465;28;20451;-77
2023/04/12 07:16:45;;;;;;;10.93;7.53;;;;;;;10.82;73.86;94008.56;5054059;28;20487;-77
2023/04/12 07:19:12;;;;;;;9.73;7.50;;;;;;;11.34;72.47;94016.44;5073097;28;20506;-76
2023/04/12 07:21:39;;;;;;;10.40;6.60;;;;;;;11.67;68.41;94014.81;5073110;28;20994;-77
2023/04/12 07:24:06;;;;;;;8.20;6.97;;;;;;;12.01;67.83;94001.63;5072826;28;20931;-76
2023/04/12 07:26:35;;;;;;;11.47;8.07;;;;;;;12.38;66.70;94001.19;5073468;28;20449;-77
2023/04/12 07:29:03;;;;;;;10.27;7.50;;;;;;;12.62;65.53;94016.19;5073701;28;20851;-77
2023/04/12 07:31:30;;;;;;;9.57;7.53;;;;;;;12.71;64.88;94000.22;5072606;28;20450;-77
2023/04/12 07:33:57;;;;;;;7.73;6.93;;;;;;;12.53;64.57;93994.31;5072644;28;20452;-77
2023/04/12 07:36:25;;;;;;;19.47;7.70;;;;;;;12.77;64.93;94004.03;5038196;28;20465;-76
2023/04/12 07:38:54;;;;;;;7.70;7.00;;;;;;;12.80;63.60;93998.44;5054843;28;20463;-76
2023/04/12 07:41:21;;;;;;;12.20;7.40;;;;;;;12.90;63.86;94008.78;5073098;28;20449;-77
2023/04/12 07:43:48;;;;;;;8.57;7.67;;;;;;;13.27;64.10;94014.34;5054128;28;20669;-76
2023/04/12 07:46:17;;;;;;;8.33;7.53;;;;;;;13.71;62.74;94015.72;5072875;28;20457;-77
2023/04/12 07:48:44;;;;;;;10.50;6.97;;;;;;;13.79;60.14;94020.97;5053495;28;20480;-76
2023/04/12 07:51:10;;;;;;;7.23;6.43;;;;;;;13.72;61.14;94017.38;5072576;28;20443;-77
2023/04/12 07:53:37;;;;;;;11.10;7.67;;;;;;;13.66;61.14;94018.88;5072291;28;20886;-77
2023/04/12 07:56:05;;;;;;;8.63;5.77;;;;;;;13.49;60.29;94012.84;5072677;28;20452;-76
2023/04/12 07:58:33;;;;;;;10.47;7.40;;;;;;;13.18;59.05;94002.19;5072139;28;20477;-76
2023/04/12 08:01:00;;;;;;;6.47;5.70;;;;;;;13.15;60.25;93997.25;5072257;28;20442;-75
2023/04/12 08:03:28;;;;;;;5.90;5.43;;;;;;;13.20;60.74;93994.13;5053480;28;20489;-76
2023/04/12 08:05:55;;;;;;;7.70;4.90;;;;;;;12.97;59.63;93997.41;5072878;28;20446;-78
2023/04/12 08:08:22;;;;;;;6.97;4.73;;;;;;;12.81;59.63;94000.09;5072014;28;20475;-76
2023/04/12 08:10:49;;;;;;;4.97;4.57;;;;;;;12.94;58.09;93994.28;5072216;28;20449;-77
2023/04/12 08:13:16;;;;;;;7.00;4.97;;;;;;;12.94;57.02;93989.84;5072145;28;20442;-77
2023/04/12 08:15:43;;;;;;;7.70;6.10;;;;;;;12.83;57.58;93987.56;5072864;28;20491;-75
2023/04/12 08:18:11;;;;;;;5.03;4.57;;;;;;;12.58;57.67;93988.56;5073032;28;20925;-76
2023/04/12 08:20:40;;;;;;;7.20;5.80;;;;;;;12.53;57.63;93990.88;5072454;28;20445;-77
2023/04/12 08:23:07;;;;;;;8.27;4.83;;;;;;;12.48;58.24;93986.09;5071885;28;20533;-76
2023/04/12 08:25:34;;;;;;;5.90;5.27;;;;;;;12.53;59.09;93996.13;5036843;28;20446;-77
2023/04/12 08:28:02;;;;;;;10.63;6.40;;;;;;;12.59;58.70;93998.09;5072366;28;20506;-76
2023/04/12 08:30:29;;;;;;;7.57;5.60;;;;;;;12.63;57.59;94002.88;5071440;28;20968;-77
2023/04/12 08:32:56;;;;;;;6.20;5.10;;;;;;;12.75;54.07;94013.91;5071592;28;20444;-75
2023/04/12 08:35:23;;;;;;;5.83;4.80;;;;;;;13.06;52.63;94014.06;5072031;28;20450;-76
2023/04/12 08:37:51;;;;;;;3.73;3.43;;;;;;;13.31;51.50;94012.25;5071492;28;20441;-76
2023/04/12 08:40:20;;;;;;;3.70;3.03;;;;;;;13.65;53.98;93990.88;5071635;28;20454;-76
2023/04/12 08:42:47;;;;;;;4.03;3.67;;;;;;;13.88;49.02;93997.06;5071760;28;20531;-77
2023/04/12 08:45:14;;;;;;;7.23;3.80;;;;;;;14.08;49.43;94000.06;5071521;28;20451;-75
2023/04/12 08:47:43;;;;;;;5.90;4.60;;;;;;;14.06;48.86;93990.69;5071433;28;20436;-76
2023/04/12 08:50:12;;;;;;;5.47;4.30;;;;;;;14.16;49.47;93992.09;5071733;28;20854;-76
2023/04/12 08:52:40;;;;;;;4.13;3.30;;;;;;;14.23;49.62;93984.34;5071463;28;20446;-77
2023/04/12 08:55:11;;;;;;;4.23;3.93;;;;;;;14.19;49.31;93975.13;5071726;28;20456;-77
2023/04/12 08:57:41;;;;;;;4.30;3.50;;;;;;;14.31;47.47;93978.16;5036506;28;20442;-77
2023/04/12 09:00:11;;;;;;;3.77;3.47;;;;;;;14.46;48.13;93973.81;5035992;28;20536;-76
2023/04/12 09:02:41;;;;;;;3.63;3.33;;;;;;;14.45;47.26;93964.22;5071452;28;20984;-76
2023/04/12 09:05:09;;;;;;;3.70;3.40;;;;;;;14.66;48.89;93961.75;5071191;28;20969;-77
2023/04/12 09:07:36;;;;;;;3.60;3.30;;;;;;;14.82;48.41;93969.56;5071457;28;20503;-77
2023/04/12 09:10:04;;;;;;;7.20;3.27;;;;;;;14.95;48.24;93962.84;5052693;28;20487;-77
2023/04/12 09:12:32;;;;;;;4.40;4.10;;;;;;;14.96;50.95;93959.19;5072967;28;20456;-76
2023/04/12 09:15:08;;;;;;;8.13;4.17;;;;;;;14.64;47.73;93940.00;5071613;28;20506;-75
2023/04/12 09:17:37;;;;;;;5.60;4.53;;;;;;;14.66;48.66;93951.22;5072535;28;20836;-76
2023/04/12 09:20:24;;;;;;;5.37;4.97;;;;;;;14.74;46.68;93951.13;5072806;28;20451;-78
2023/04/12 09:22:53;;;;;;;4.67;3.67;;;;;;;14.91;45.68;93954.47;5072563;28;20868;-77
2023/04/12 09:25:36;;;;;;;8.80;5.17;;;;;;;15.03;46.86;93947.72;5070310;28;20441;-79
2023/04/12 09:28:18;;;;;;;4.27;3.87;;;;;;;15.07;46.48;93940.28;5072359;28;20536;-77
2023/04/12 09:30:50;;;;;;;4.93;3.70;;;;;;;15.12;45.93;93932.63;5072562;28;20448;-77
2023/04/12 09:33:17;;;;;;;4.77;4.17;;;;;;;15.23;46.26;93940.09;5072314;28;20894;-75
2023/04/12 09:35:44;;;;;;;4.50;4.00;;;;;;;15.35;44.14;93941.31;5072519;28;20451;-77
2023/04/12 09:38:11;;;;;;;5.20;4.70;;;;;;;15.27;43.85;93933.44;5072705;28;20926;-75
2023/04/12 09:40:38;;;;;;;6.83;3.67;;;;;;;15.35;43.63;93925.44;5072226;28;20452;-77
2023/04/12 09:43:07;;;;;;;4.77;2.50;;;;;;;15.13;43.04;93934.28;5072232;28;20440;-78
2023/04/12 09:45:37;;;;;;;7.03;3.27;;;;;;;15.29;42.42;93912.13;5075294;28;20928;-77
2023/04/12 09:48:05;;;;;;;3.53;2.90;;;;;;;15.44;41.70;93918.22;5075187;28;20499;-78
2023/04/12 09:50:33;;;;;;;2.80;2.60;;;;;;;15.62;41.42;93918.72;5076223;28;20541;-78
2023/04/12 09:53:01;;;;;;;7.73;7.03;;;;;;;15.67;41.91;93899.66;5076063;28;20479;-78
2023/04/12 09:55:30;;;;;;;59.00;43.87;;;;;;;16.09;45.07;93905.00;5076317;28;20459;-82
2023/04/12 09:58:02;;;;;;;68.50;51.83;;;;;;;16.43;41.70;93900.84;5076327;28;20447;-86
2023/04/12 10:00:33;;;;;;;24.80;22.17;;;;;;;16.54;44.18;93899.53;5076187;28;20438;-85
2023/04/12 10:03:01;;;;;;;35.60;28.97;;;;;;;16.71;42.39;93885.84;5024727;28;20431;-84
2023/04/12 10:05:28;;;;;;;11.10;7.20;;;;;;;16.60;40.29;93888.97;5076274;28;20542;-85
2023/04/12 10:07:55;;;;;;;3.53;3.30;;;;;;;16.61;42.02;93880.03;5076019;28;20902;-78
2023/04/12 10:10:23;;;;;;;4.30;3.40;;;;;;;16.24;40.88;93878.47;5075754;28;20968;-78
2023/04/12 10:12:50;;;;;;;7.80;4.63;;;;;;;16.25;45.11;93877.47;5040072;28;20444;-77
2023/04/12 10:15:19;;;;;;;4.30;2.40;;;;;;;15.63;37.16;93853.41;5075560;28;20529;-80
2023/04/12 10:17:49;;;;;;;6.03;3.70;;;;;;;15.35;35.95;93848.78;5041399;28;20948;-80
2023/04/12 10:20:17;;;;;;;5.23;3.80;;;;;;;15.04;37.52;93879.88;5075291;28;20960;-78
2023/04/12 10:22:45;;;;;;;5.07;2.10;;;;;;;14.49;34.20;93886.34;5075506;28;20832;-80
2023/04/12 10:25:14;;;;;;;2.33;2.10;;;;;;;14.23;34.66;93890.16;5075772;28;20458;-79
2023/04/12 10:27:42;;;;;;;2.53;2.27;;;;;;;14.13;36.86;93883.47;5075714;28;20465;-80
2023/04/12 10:30:23;;;;;;;5.80;3.10;;;;;;;13.99;35.58;93866.59;5075645;28;20822;-79
2023/04/12 10:33:12;;;;;;;3.40;2.70;;;;;;;13.94;37.27;93874.22;5075610;28;20448;-79
2023/04/12 10:35:58;;;;;;;3.93;2.37;;;;;;;14.09;37.91;93861.88;5075625;28;20486;-79
2023/04/12 10:38:30;;;;;;;3.70;2.80;;;;;;;14.29;37.42;93875.44;5076525;28;20446;-78
2023/04/12 10:41:24;;;;;;;2.40;2.07;;;;;;;14.40;36.65;93858.34;5080467;28;20805;-78
2023/04/12 10:43:51;;;;;;;2.47;2.27;;;;;;;14.50;36.76;93830.75;5074954;28;20447;-78
2023/04/12 10:46:52;;;;;;;3.43;2.60;;;;;;;14.58;49.03;93850.97;5075411;28;20532;-78
2023/04/12 10:49:21;;;;;;;2.57;2.37;;;;;;;14.55;37.89;93857.41;5078494;28;20477;-76
2023/04/12 10:52:14;;;;;;;3.50;2.73;;;;;;;14.50;38.74;93840.47;5057010;28;21294;-79
2023/04/12 10:54:41;;;;;;;6.20;4.37;;;;;;;14.44;33.98;93815.59;5075647;28;20522;-80
2023/04/12 10:57:41;;;;;;;2.97;1.97;;;;;;;14.43;34.48;93821.06;5075244;28;20450;-79
2023/04/12 11:00:08;;;;;;;3.30;2.60;;;;;;;14.61;35.35;93832.09;5074999;28;20526;-80
2023/04/12 11:02:35;;;;;;;2.50;2.30;;;;;;;14.80;33.69;93833.41;5056698;28;20459;-81
2023/04/12 11:05:08;;;;;;;1.77;1.67;;;;;;;14.71;31.92;93827.38;5075083;28;20441;-80
2023/04/12 11:07:40;;;;;;;3.20;2.03;;;;;;;14.80;32.92;93834.22;5075482;28;20447;-80
2023/04/12 11:10:13;;;;;;;1.93;1.83;;;;;;;14.86;34.07;93832.69;5074455;28;20493;-82
2023/04/12 11:12:41;;;;;;;1.87;1.73;;;;;;;14.91;34.06;93824.19;5074247;28;20528;-81
2023/04/12 11:15:12;;;;;;;3.00;2.30;;;;;;;14.97;33.78;93826.94;5074874;28;20516;-81
2023/04/12 11:17:39;;;;;;;1.80;1.63;;;;;;;14.84;31.07;93814.38;5074790;28;20453;-81
2023/04/12 11:20:12;;;;;;;3.60;2.33;;;;;;;14.76;31.45;93809.19;5074650;28;20451;-80
2023/04/12 11:22:40;;;;;;;5.13;2.40;;;;;;;14.87;32.69;93824.56;5074568;28;20959;-80
2023/04/12 11:25:08;;;;;;;3.93;3.23;;;;;;;14.99;39.57;93821.47;5074352;28;20475;-79
2023/04/12 11:27:36;;;;;;;3.10;2.00;;;;;;;15.02;32.51;93821.91;5039169;28;20931;-82
2023/04/12 11:30:04;;;;;;;2.23;2.03;;;;;;;14.95;32.75;93828.94;5074568;28;20477;-79
2023/04/12 11:32:32;;;;;;;3.47;2.50;;;;;;;14.87;32.95;93837.78;5055886;28;20458;-80